Time;durP1;ratioP1;P1;durP2;ratioP2;P2;SDS_P1;SDS_P2;PMS_P1;PMS_P2;Temp;Humidity;BMP_temperature;BMP_pressure;BME280_temperature;BME280_humidity;BME280_pressure;Samples;Min_cycle;Max_cycle;Signal;HPM_P1;HPM_P2
2021/05/26 00:00:27;;;;;;;0.30;0.20;;;26.00;57.30;;;;;;4996396;28;20568;-72
2021/05/26 00:02:54;;;;;;;3.17;0.40;;;25.90;57.50;;;;;;4990998;28;20026;-73
2021/05/26 00:05:22;;;;;;;0.73;0.10;;;26.20;56.20;;;;;;4998019;28;20049;-75
2021/05/26 00:07:49;;;;;;;1.42;0.40;;;25.50;57.50;;;;;;4992882;28;20088;-74
2021/05/26 00:10:17;;;;;;;2.08;0.13;;;25.70;57.60;;;;;;4995414;28;20030;-78
2021/05/26 00:12:45;;;;;;;1.27;0.28;;;25.70;55.10;;;;;;4998123;28;20611;-76
2021/05/26 00:15:13;;;;;;;0.32;0.20;;;26.00;57.10;;;;;;4992983;28;20121;-77
2021/05/26 00:17:41;;;;;;;1.65;0.10;;;26.30;54.60;;;;;;4998025;28;20145;-75
2021/05/26 00:20:09;;;;;;;1.33;0.20;;;26.40;56.00;;;;;;4997635;28;20026;-79
2021/05/26 00:22:36;;;;;;;0.22;0.13;;;26.60;56.10;;;;;;5001444;28;20041;-76
2021/05/26 00:25:05;;;;;;;0.63;0.15;;;26.90;55.70;;;;;;4998984;28;20429;-80
2021/05/26 00:27:32;;;;;;;0.55;0.30;;;27.10;55.50;;;;;;5006845;28;20072;-77
2021/05/26 00:30:00;;;;;;;0.88;0.35;;;27.10;55.10;;;;;;4993664;28;20421;-75
2021/05/26 00:32:27;;;;;;;1.00;0.52;;;27.80;55.50;;;;;;5002478;28;20037;-78
2021/05/26 00:34:55;;;;;;;0.20;0.20;;;28.00;53.00;;;;;;4993408;28;20046;-77
2021/05/26 00:37:23;;;;;;;0.25;0.10;;;28.00;53.10;;;;;;4997078;28;20951;-78
2021/05/26 00:39:51;;;;;;;1.33;0.30;;;28.10;51.40;;;;;;4993374;28;20223;-76
2021/05/26 00:42:22;;;;;;;1.17;0.20;;;28.30;50.80;;;;;;5004240;28;20377;-73
2021/05/26 00:44:53;;;;;;;1.05;0.22;;;28.20;52.20;;;;;;5001429;28;20030;-74
2021/05/26 00:47:42;;;;;;;0.43;0.20;;;27.90;52.20;;;;;;5002789;28;20026;-78
2021/05/26 00:50:13;;;;;;;0.40;0.20;;;27.50;52.70;;;;;;4997969;28;20042;-75
2021/05/26 00:52:41;;;;;;;0.88;0.20;;;27.90;48.70;;;;;;4995505;28;20462;-73
2021/05/26 00:55:10;;;;;;;0.30;0.10;;;27.20;48.20;;;;;;4996542;28;20566;-74
2021/05/26 00:57:38;;;;;;;0.65;0.30;;;26.80;49.60;;;;;;4998150;28;20042;-76
2021/05/26 01:00:12;;;;;;;1.83;0.30;;;26.90;51.40;;;;;;4990666;28;20061;-74
2021/05/26 01:02:40;;;;;;;0.88;0.30;;;27.40;52.10;;;;;;4991672;28;20527;-75
2021/05/26 01:05:09;;;;;;;0.63;0.30;;;27.50;47.00;;;;;;4999030;28;20392;-74
2021/05/26 01:07:38;;;;;;;0.50;0.15;;;27.70;48.40;;;;;;4999441;28;20014;-74
2021/05/26 01:10:07;;;;;;;0.20;0.20;;;27.00;47.70;;;;;;4994950;28;20377;-72
2021/05/26 01:12:36;;;;;;;1.38;0.22;;;27.00;46.50;;;;;;4998536;28;20060;-76
2021/05/26 01:15:06;;;;;;;0.20;0.10;;;27.20;47.00;;;;;;4990632;28;20042;-75
2021/05/26 01:17:34;;;;;;;0.85;0.25;;;27.80;49.70;;;;;;4995069;28;20105;-77
2021/05/26 01:20:07;;;;;;;0.30;0.20;;;27.70;47.70;;;;;;4995855;28;20120;-82
2021/05/26 01:22:34;;;;;;;0.52;0.20;;;27.40;49.40;;;;;;4998062;28;20469;-75
2021/05/26 01:25:03;;;;;;;1.30;0.20;;;27.40;48.60;;;;;;4992443;28;20426;-74
2021/05/26 01:27:31;;;;;;;0.20;0.10;;;27.50;45.70;;;;;;4994639;28;20030;-75
2021/05/26 01:30:02;;;;;;;0.17;0.10;;;27.60;45.20;;;;;;4995147;28;20031;-74
2021/05/26 01:32:29;;;;;;;0.13;0.13;;;28.40;46.10;;;;;;4997536;28;20026;-75
2021/05/26 01:34:57;;;;;;;0.20;0.10;;;28.40;44.00;;;;;;4994034;28;20048;-76
2021/05/26 01:37:24;;;;;;;0.13;0.10;;;28.30;43.00;;;;;;5001403;28;20045;-74
2021/05/26 01:39:52;;;;;;;0.40;0.20;;;28.70;45.00;;;;;;4997590;28;20034;-75
2021/05/26 01:42:30;;;;;;;0.45;0.10;;;29.20;43.90;;;;;;5000309;28;20112;-75
2021/05/26 01:44:59;;;;;;;1.13;0.38;;;28.90;41.80;;;;;;4993350;28;20022;-75
2021/05/26 01:47:27;;;;;;;0.32;0.10;;;28.30;42.60;;;;;;5002715;28;20377;-75
2021/05/26 01:49:55;;;;;;;1.55;0.20;;;28.40;42.70;;;;;;4996080;28;20061;-76
2021/05/26 01:52:22;;;;;;;0.85;0.10;;;28.30;42.90;;;;;;4994410;28;20084;-75
2021/05/26 01:54:50;;;;;;;0.65;0.10;;;28.50;42.20;;;;;;4996410;28;20065;-75
2021/05/26 01:57:17;;;;;;;1.55;0.10;;;28.40;42.90;;;;;;4994203;28;20057;-76
2021/05/26 01:59:45;;;;;;;0.10;0.10;;;28.20;43.30;;;;;;4991258;28;20030;-77
2021/05/26 02:02:12;;;;;;;1.65;0.10;;;28.40;41.80;;;;;;4999291;28;20076;-75
2021/05/26 02:04:40;;;;;;;0.10;0.00;;;27.60;40.10;;;;;;4995405;28;20045;-77
2021/05/26 02:07:12;;;;;;;0.28;0.10;;;27.70;41.40;;;;;;5000507;28;20028;-76
2021/05/26 02:09:40;;;;;;;1.63;0.40;;;27.80;41.50;;;;;;4990866;28;20493;-77
2021/05/26 02:12:24;;;;;;;1.45;0.40;;;28.40;41.60;;;;;;5001668;28;20030;-78
2021/05/26 02:14:56;;;;;;;0.00;0.00;;;28.60;39.80;;;;;;4997300;28;20034;-75
2021/05/26 02:17:24;;;;;;;0.43;0.05;;;28.70;39.60;;;;;;4998545;28;20092;-73
2021/05/26 02:19:52;;;;;;;0.30;0.22;;;29.10;41.50;;;;;;5003269;28;20030;-76
2021/05/26 02:22:20;;;;;;;0.73;0.10;;;29.00;39.10;;;;;;5003717;28;20022;-78
2021/05/26 02:24:47;;;;;;;2.67;0.10;;;28.90;41.10;;;;;;5000184;28;20137;-75
2021/05/26 02:27:16;;;;;;;0.25;0.13;;;28.70;41.60;;;;;;5002922;28;20030;-75
2021/05/26 02:29:44;;;;;;;0.10;0.10;;;28.70;38.30;;;;;;5001335;28;20476;-74
2021/05/26 02:32:12;;;;;;;0.00;0.00;;;28.30;37.10;;;;;;4999476;28;20029;-76
2021/05/26 02:34:40;;;;;;;0.60;0.10;;;28.30;37.30;;;;;;5000382;28;20034;-74
2021/05/26 02:37:08;;;;;;;0.98;0.10;;;28.20;43.40;;;;;;5003164;28;20045;-73
2021/05/26 02:39:35;;;;;;;0.13;0.10;;;28.40;39.60;;;;;;4996244;28;20032;-73
2021/05/26 02:42:03;;;;;;;0.28;0.10;;;28.60;39.10;;;;;;4999339;28;20017;-76
2021/05/26 02:44:30;;;;;;;0.30;0.10;;;28.90;42.00;;;;;;4994690;28;20432;-74
2021/05/26 02:46:57;;;;;;;0.20;0.10;;;28.80;42.10;;;;;;4984568;28;20057;-75
2021/05/26 02:49:25;;;;;;;0.10;0.05;;;28.80;43.00;;;;;;4988301;28;20449;-77
2021/05/26 02:51:52;;;;;;;0.20;0.10;;;28.70;41.60;;;;;;4982530;28;20034;-74
2021/05/26 02:54:19;;;;;;;0.35;0.10;;;28.30;38.10;;;;;;4996281;28;20044;-77
2021/05/26 02:56:47;;;;;;;0.43;0.10;;;28.50;40.70;;;;;;4993633;28;20061;-75
2021/05/26 02:59:14;;;;;;;0.05;0.05;;;27.50;37.70;;;;;;4995897;28;20077;-74
2021/05/26 03:01:42;;;;;;;0.10;0.00;;;26.90;40.50;;;;;;4994427;28;20037;-73
2021/05/26 03:04:10;;;;;;;0.10;0.10;;;27.10;38.10;;;;;;4994393;28;20089;-74
2021/05/26 03:06:37;;;;;;;0.60;0.10;;;27.10;43.00;;;;;;4991130;28;20065;-72
2021/05/26 03:09:05;;;;;;;0.20;0.10;;;27.00;37.70;;;;;;4990187;28;20034;-72
2021/05/26 03:11:33;;;;;;;0.93;0.20;;;26.90;37.90;;;;;;4996671;28;20025;-75
2021/05/26 03:14:00;;;;;;;0.50;0.10;;;27.10;39.00;;;;;;4998744;28;20069;-75
2021/05/26 03:16:28;;;;;;;0.10;0.03;;;27.10;37.50;;;;;;4987134;28;20034;-73
2021/05/26 03:18:55;;;;;;;0.28;0.03;;;26.90;40.40;;;;;;4988399;28;20128;-74
2021/05/26 03:21:22;;;;;;;0.00;0.00;;;27.20;39.30;;;;;;4987592;28;20437;-73
2021/05/26 03:23:50;;;;;;;0.10;0.00;;;26.90;39.70;;;;;;4996061;28;22422;-73
2021/05/26 03:26:18;;;;;;;0.88;0.03;;;26.50;38.80;;;;;;4989774;28;20424;-73
2021/05/26 03:28:45;;;;;;;0.57;0.30;;;26.50;39.40;;;;;;4986260;28;20026;-74
2021/05/26 03:31:13;;;;;;;0.20;0.00;;;26.20;38.10;;;;;;4994686;28;20394;-72
2021/05/26 03:33:40;;;;;;;1.45;1.10;;;26.00;40.60;;;;;;4998969;28;20030;-73
2021/05/26 03:36:08;;;;;;;0.43;0.10;;;25.50;41.00;;;;;;4996986;28;20104;-73
2021/05/26 03:38:35;;;;;;;0.00;0.00;;;25.10;38.20;;;;;;4991398;28;20034;-73
2021/05/26 03:41:03;;;;;;;0.10;0.00;;;24.50;40.10;;;;;;4991991;28;20034;-72
2021/05/26 03:43:30;;;;;;;0.10;0.10;;;24.20;39.80;;;;;;4994791;28;20064;-74
2021/05/26 03:45:58;;;;;;;0.95;0.73;;;23.50;40.20;;;;;;4993411;28;20040;-73
2021/05/26 03:48:25;;;;;;;1.20;0.00;;;23.40;41.50;;;;;;4987853;28;20041;-74
2021/05/26 03:50:53;;;;;;;0.22;0.00;;;23.10;40.20;;;;;;4994364;28;20505;-73
2021/05/26 03:53:20;;;;;;;0.57;0.10;;;23.00;41.10;;;;;;4992967;28;20120;-76
2021/05/26 03:55:48;;;;;;;0.00;0.00;;;23.00;42.90;;;;;;4995620;28;20022;-78
2021/05/26 03:58:15;;;;;;;0.40;0.03;;;23.00;41.00;;;;;;4996163;28;21385;-79
2021/05/26 04:00:43;;;;;;;0.22;0.05;;;22.70;41.40;;;;;;4995749;28;20038;-78
2021/05/26 04:03:10;;;;;;;0.00;0.00;;;22.80;43.00;;;;;;4996316;28;20508;-78
2021/05/26 04:05:37;;;;;;;0.13;0.00;;;22.60;41.30;;;;;;4992960;28;20123;-78
2021/05/26 04:08:05;;;;;;;2.05;0.03;;;22.50;41.30;;;;;;4993354;28;20381;-73
2021/05/26 04:10:33;;;;;;;0.30;0.00;;;22.50;44.10;;;;;;4998732;28;20030;-72
2021/05/26 04:13:00;;;;;;;0.17;0.00;;;22.50;43.50;;;;;;4992292;28;20026;-75
2021/05/26 04:15:27;;;;;;;0.00;0.00;;;22.40;41.70;;;;;;4992655;28;20042;-74
2021/05/26 04:17:55;;;;;;;0.10;0.10;;;22.20;40.40;;;;;;5000496;28;20515;-74
2021/05/26 04:20:22;;;;;;;0.10;0.00;;;22.20;40.80;;;;;;4992034;28;20410;-73
2021/05/26 04:22:50;;;;;;;0.00;0.00;;;22.10;40.90;;;;;;4994208;28;20026;-73
2021/05/26 04:25:17;;;;;;;0.00;0.00;;;22.10;40.30;;;;;;4988088;28;20543;-73
2021/05/26 04:27:46;;;;;;;1.63;0.00;;;22.00;41.50;;;;;;4995327;28;20050;-72
2021/05/26 04:30:14;;;;;;;0.00;0.00;;;22.00;41.30;;;;;;4996463;28;20741;-72
2021/05/26 04:32:41;;;;;;;0.03;0.03;;;21.90;40.90;;;;;;5000914;28;20029;-72
2021/05/26 04:35:09;;;;;;;1.45;0.10;;;21.80;41.60;;;;;;4999614;28;20065;-73
2021/05/26 04:37:37;;;;;;;0.20;0.00;;;21.80;40.90;;;;;;4996415;28;20023;-73
2021/05/26 04:40:06;;;;;;;0.17;0.00;;;21.80;41.60;;;;;;4998822;28;20026;-73
2021/05/26 04:42:34;;;;;;;0.68;0.47;;;21.80;42.00;;;;;;5000912;28;20117;-74
2021/05/26 04:45:01;;;;;;;0.65;0.10;;;21.70;42.20;;;;;;4994103;28;20034;-75
2021/05/26 04:47:28;;;;;;;4.00;0.20;;;21.70;43.90;;;;;;4996727;28;20388;-76
2021/05/26 04:49:56;;;;;;;0.10;0.03;;;21.70;43.10;;;;;;4992868;28;20062;-74
2021/05/26 04:52:23;;;;;;;0.47;0.10;;;21.70;42.60;;;;;;4998588;28;20586;-75
2021/05/26 04:54:51;;;;;;;0.20;0.20;;;21.70;43.20;;;;;;4995177;28;20453;-74
2021/05/26 04:57:18;;;;;;;4.75;0.47;;;21.60;42.30;;;;;;4995966;28;20022;-74
2021/05/26 04:59:46;;;;;;;0.40;0.10;;;21.50;42.70;;;;;;4998996;28;20400;-75
2021/05/26 05:02:13;;;;;;;0.10;0.00;;;21.50;44.80;;;;;;5001837;28;20018;-75
2021/05/26 05:04:41;;;;;;;1.58;0.03;;;21.50;43.30;;;;;;4995149;28;20038;-74
2021/05/26 05:07:08;;;;;;;0.75;0.20;;;21.40;45.70;;;;;;4995439;28;20045;-74
2021/05/26 05:09:35;;;;;;;0.63;0.10;;;21.30;46.10;;;;;;5003237;28;20040;-74
2021/05/26 05:12:03;;;;;;;0.25;0.10;;;21.30;45.50;;;;;;4994157;28;20407;-72
2021/05/26 05:14:30;;;;;;;0.75;0.10;;;21.20;46.30;;;;;;4999269;28;20425;-74
2021/05/26 05:16:58;;;;;;;0.63;0.10;;;21.20;45.40;;;;;;4995341;28;20041;-74
2021/05/26 05:19:25;;;;;;;0.90;0.22;;;21.20;45.70;;;;;;5000416;28;20117;-76
2021/05/26 05:21:52;;;;;;;0.55;0.43;;;21.20;47.10;;;;;;4999790;28;20105;-75
2021/05/26 05:24:20;;;;;;;0.40;0.20;;;21.10;45.60;;;;;;4999931;28;20022;-74
2021/05/26 05:26:47;;;;;;;0.40;0.10;;;21.10;46.30;;;;;;5000122;28;20025;-75
2021/05/26 05:29:15;;;;;;;0.73;0.40;;;21.00;46.20;;;;;;4997387;28;20050;-74
2021/05/26 05:31:42;;;;;;;0.80;0.28;;;20.90;47.20;;;;;;4995435;28;20512;-75
2021/05/26 05:34:10;;;;;;;1.67;0.28;;;20.90;47.20;;;;;;5001736;28;20048;-74
2021/05/26 05:36:37;;;;;;;0.47;0.13;;;20.80;47.00;;;;;;4997418;28;20041;-74
2021/05/26 05:39:05;;;;;;;0.10;0.10;;;20.80;47.60;;;;;;5002937;28;20499;-74
2021/05/26 05:41:32;;;;;;;1.35;0.20;;;20.80;46.90;;;;;;4995361;28;20096;-75
2021/05/26 05:44:00;;;;;;;1.30;0.10;;;20.80;46.40;;;;;;5002084;28;20431;-73
2021/05/26 05:46:27;;;;;;;2.30;0.60;;;20.80;47.00;;;;;;4995230;28;20018;-75
2021/05/26 05:48:54;;;;;;;0.95;0.20;;;20.70;48.00;;;;;;4999248;28;20049;-73
2021/05/26 05:51:22;;;;;;;2.65;0.28;;;20.70;48.20;;;;;;4999022;28;20624;-74
2021/05/26 05:53:49;;;;;;;0.68;0.20;;;20.70;49.10;;;;;;5000292;28;20112;-73
2021/05/26 05:56:16;;;;;;;0.85;0.20;;;20.70;49.40;;;;;;5004355;28;20457;-74
2021/05/26 05:58:44;;;;;;;0.50;0.20;;;20.80;48.80;;;;;;4999541;28;20021;-74
2021/05/26 06:01:11;;;;;;;0.75;0.20;;;20.70;48.40;;;;;;4996171;28;20515;-75
2021/05/26 06:03:39;;;;;;;1.33;0.25;;;20.70;49.00;;;;;;5003194;28;20421;-73
2021/05/26 06:06:08;;;;;;;0.38;0.10;;;20.60;49.60;;;;;;4993402;28;20022;-73
2021/05/26 06:08:36;;;;;;;0.35;0.10;;;20.70;49.80;;;;;;4994802;28;20113;-74
2021/05/26 06:11:03;;;;;;;2.70;0.32;;;20.60;48.50;;;;;;4995489;28;20074;-73
2021/05/26 06:13:31;;;;;;;0.57;0.10;;;20.50;49.20;;;;;;4999344;28;20034;-74
2021/05/26 06:15:58;;;;;;;1.83;0.25;;;20.50;49.20;;;;;;4999003;28;20026;-72
2021/05/26 06:18:26;;;;;;;1.50;0.20;;;20.60;48.40;;;;;;4997264;28;20105;-75
2021/05/26 06:20:53;;;;;;;1.48;0.57;;;20.60;49.20;;;;;;4992065;28;20081;-74
2021/05/26 06:23:20;;;;;;;0.65;0.20;;;20.60;49.40;;;;;;4997086;28;20388;-74
2021/05/26 06:25:48;;;;;;;0.57;0.10;;;20.40;49.90;;;;;;4991600;28;20045;-77
2021/05/26 06:28:15;;;;;;;2.13;0.15;;;20.50;48.70;;;;;;4992158;28;20087;-73
2021/05/26 06:30:42;;;;;;;0.43;0.10;;;20.40;49.40;;;;;;4996150;28;20091;-74
2021/05/26 06:33:10;;;;;;;1.25;0.52;;;20.20;49.80;;;;;;4993328;28;20353;-74
2021/05/26 06:35:37;;;;;;;0.20;0.10;;;20.00;49.70;;;;;;4997522;28;20408;-72
2021/05/26 06:38:08;;;;;;;0.95;0.10;;;19.80;49.60;;;;;;4996955;28;20041;-77
2021/05/26 06:40:35;;;;;;;1.83;0.28;;;19.70;50.90;;;;;;4994503;28;20461;-74
2021/05/26 06:43:02;;;;;;;0.32;0.10;;;19.40;51.10;;;;;;4994480;28;20169;-75
2021/05/26 06:45:30;;;;;;;0.82;0.20;;;19.30;51.80;;;;;;4990481;28;20039;-76
2021/05/26 06:47:57;;;;;;;1.23;0.77;;;19.10;52.90;;;;;;4991045;28;20029;-75
2021/05/26 06:50:24;;;;;;;1.85;0.20;;;19.00;52.30;;;;;;4993194;28;20049;-76
2021/05/26 06:52:52;;;;;;;0.75;0.28;;;18.90;52.90;;;;;;4995992;28;20567;-77
2021/05/26 06:55:20;;;;;;;0.57;0.20;;;18.80;52.80;;;;;;4993363;28;20065;-72
2021/05/26 06:57:47;;;;;;;2.17;0.30;;;18.70;54.00;;;;;;4994394;28;20076;-72
2021/05/26 07:00:15;;;;;;;1.55;0.35;;;18.70;54.90;;;;;;4999500;28;20121;-74
2021/05/26 07:02:43;;;;;;;3.03;0.20;;;18.70;54.60;;;;;;4993790;28;20027;-73
2021/05/26 07:05:11;;;;;;;0.90;0.10;;;18.60;54.70;;;;;;4999565;28;20030;-76
2021/05/26 07:07:38;;;;;;;0.88;0.20;;;18.60;56.10;;;;;;5001454;28;20133;-72
2021/05/26 07:10:06;;;;;;;0.80;0.30;;;18.40;55.60;;;;;;4999495;28;20037;-73
2021/05/26 07:12:34;;;;;;;1.13;0.20;;;18.40;56.00;;;;;;4995250;28;20023;-72
2021/05/26 07:15:01;;;;;;;0.52;0.30;;;18.30;56.70;;;;;;4996137;28;20096;-76
2021/05/26 07:17:29;;;;;;;2.92;0.55;;;18.10;56.50;;;;;;4996203;28;20485;-74
2021/05/26 07:19:57;;;;;;;2.20;1.70;;;18.00;57.00;;;;;;4999745;28;20065;-76
2021/05/26 07:22:25;;;;;;;3.45;1.00;;;17.80;57.10;;;;;;5002699;28;20026;-74
2021/05/26 07:24:52;;;;;;;1.02;0.50;;;17.70;56.30;;;;;;4994235;28;20030;-77
2021/05/26 07:27:19;;;;;;;1.70;0.60;;;17.60;56.70;;;;;;4999046;28;20424;-75
2021/05/26 07:29:47;;;;;;;3.33;0.88;;;17.50;56.80;;;;;;4999583;28;21572;-74
2021/05/26 07:32:14;;;;;;;1.65;0.50;;;17.40;57.00;;;;;;5004719;28;20156;-79
2021/05/26 07:34:41;;;;;;;1.38;0.40;;;17.30;57.10;;;;;;4993149;28;20042;-79
2021/05/26 07:37:09;;;;;;;1.63;0.50;;;17.30;57.60;;;;;;4992898;28;20042;-78
2021/05/26 07:39:37;;;;;;;2.08;0.75;;;17.20;57.50;;;;;;4987028;28;20037;-78
2021/05/26 07:42:05;;;;;;;0.77;0.65;;;17.10;57.90;;;;;;4998546;28;20034;-78
2021/05/26 07:44:33;;;;;;;4.00;1.10;;;17.00;57.70;;;;;;4995255;28;20046;-78
2021/05/26 07:47:01;;;;;;;3.10;0.82;;;17.00;57.90;;;;;;4994696;28;20030;-78
2021/05/26 07:49:29;;;;;;;1.85;0.60;;;17.00;57.80;;;;;;4994556;28;20031;-79
2021/05/26 07:52:02;;;;;;;2.05;0.90;;;16.90;59.10;;;;;;4993552;28;20046;-75
2021/05/26 07:54:30;;;;;;;2.70;0.60;;;16.80;58.60;;;;;;4994936;28;20038;-76
2021/05/26 07:56:59;;;;;;;0.93;0.30;;;16.80;59.00;;;;;;4997901;28;20033;-75
2021/05/26 07:59:27;;;;;;;2.30;0.50;;;16.80;60.10;;;;;;4994676;28;20045;-77
2021/05/26 08:01:55;;;;;;;1.92;0.45;;;16.70;60.30;;;;;;4995377;28;20405;-80
2021/05/26 08:04:22;;;;;;;1.13;0.63;;;16.60;60.30;;;;;;4995524;28;20030;-77
2021/05/26 08:06:49;;;;;;;4.63;0.70;;;16.60;61.80;;;;;;4993519;28;20026;-80
2021/05/26 08:09:17;;;;;;;0.85;0.40;;;16.50;62.30;;;;;;4999090;28;20080;-78
2021/05/26 08:11:45;;;;;;;0.88;0.40;;;16.40;61.10;;;;;;4990442;28;20022;-76
2021/05/26 08:14:13;;;;;;;1.60;0.80;;;16.20;61.10;;;;;;4993502;28;20084;-77
2021/05/26 08:16:41;;;;;;;1.23;0.57;;;16.20;61.00;;;;;;4996492;28;20477;-78
2021/05/26 08:19:08;;;;;;;1.67;0.70;;;16.20;60.70;;;;;;4990938;28;20114;-77
2021/05/26 08:21:36;;;;;;;3.17;0.28;;;16.00;60.90;;;;;;4990513;28;20110;-78
2021/05/26 08:24:03;;;;;;;1.75;0.40;;;16.00;60.90;;;;;;4989311;28;20527;-79
2021/05/26 08:26:32;;;;;;;1.05;0.35;;;16.00;61.30;;;;;;4992868;28;20148;-77
2021/05/26 08:29:00;;;;;;;1.80;0.70;;;16.00;61.50;;;;;;4997918;28;20493;-77
2021/05/26 08:31:27;;;;;;;1.02;0.30;;;15.90;61.50;;;;;;4993906;28;20032;-76
2021/05/26 08:33:54;;;;;;;2.42;0.25;;;15.90;62.50;;;;;;5001327;28;20041;-78
2021/05/26 08:36:22;;;;;;;3.33;0.30;;;15.90;61.90;;;;;;5001719;28;20616;-77
2021/05/26 08:38:49;;;;;;;1.67;0.57;;;15.90;62.20;;;;;;4995456;28;20029;-78
2021/05/26 08:41:19;;;;;;;1.13;0.30;;;15.90;62.90;;;;;;4997612;28;20093;-79
2021/05/26 08:43:47;;;;;;;0.95;0.32;;;15.90;62.60;;;;;;4996410;28;20034;-77
2021/05/26 08:46:15;;;;;;;0.40;0.17;;;15.80;63.10;;;;;;4997009;28;20014;-78
2021/05/26 08:48:43;;;;;;;0.40;0.10;;;15.80;62.60;;;;;;4996084;28;20031;-80
2021/05/26 08:51:12;;;;;;;0.73;0.30;;;15.90;62.70;;;;;;4994422;28;20054;-79
2021/05/26 08:53:39;;;;;;;0.70;0.30;;;15.80;62.70;;;;;;4997722;28;20046;-76
2021/05/26 08:56:08;;;;;;;1.95;0.20;;;15.80;63.40;;;;;;4999870;28;20026;-78
2021/05/26 08:58:42;;;;;;;2.00;0.90;;;15.80;63.30;;;;;;5000476;28;20042;-77
2021/05/26 09:01:09;;;;;;;1.83;0.77;;;15.80;63.00;;;;;;4997170;28;20014;-78
2021/05/26 09:03:37;;;;;;;3.65;1.13;;;15.80;63.00;;;;;;5004049;28;20492;-78
2021/05/26 09:06:11;;;;;;;1.33;0.43;;;15.80;63.10;;;;;;4997094;28;20030;-77
2021/05/26 09:08:59;;;;;;;1.02;0.47;;;15.60;63.20;;;;;;5013564;28;20129;-78
2021/05/26 09:11:33;;;;;;;0.93;0.17;;;15.60;63.10;;;;;;4994829;28;20030;-78
2021/05/26 09:14:21;;;;;;;1.80;0.30;;;15.60;62.40;;;;;;4992009;28;20575;-78
2021/05/26 09:16:49;;;;;;;0.68;0.25;;;15.60;62.80;;;;;;4990136;28;20037;-77
2021/05/26 09:19:16;;;;;;;0.30;0.28;;;15.60;61.60;;;;;;4994003;28;20993;-79
2021/05/26 09:21:55;;;;;;;1.08;0.20;;;15.60;62.20;;;;;;4996879;28;20346;-79
2021/05/26 09:24:27;;;;;;;1.27;0.00;;;15.60;61.50;;;;;;4999577;28;20034;-77
2021/05/26 09:27:03;;;;;;;4.03;0.30;;;15.60;61.60;;;;;;5002299;28;20050;-77
2021/05/26 09:29:32;;;;;;;0.82;0.60;;;15.50;60.90;;;;;;4996409;28;20105;-78
2021/05/26 09:32:22;;;;;;;1.58;0.20;;;15.50;61.00;;;;;;4994262;28;20034;-77
2021/05/26 09:34:57;;;;;;;0.90;0.40;;;15.50;60.70;;;;;;4998029;28;20129;-76
2021/05/26 09:37:30;;;;;;;0.98;0.10;;;15.50;60.50;;;;;;4995016;28;20572;-76
2021/05/26 09:40:06;;;;;;;2.15;0.50;;;15.50;60.00;;;;;;4998725;28;20026;-77
2021/05/26 09:42:38;;;;;;;1.23;0.35;;;15.40;60.40;;;;;;5000352;28;20033;-78
2021/05/26 09:45:10;;;;;;;1.13;0.55;;;15.40;60.80;;;;;;4995856;28;20022;-76
2021/05/26 09:47:47;;;;;;;0.70;0.50;;;15.40;61.20;;;;;;4996417;28;20031;-77
2021/05/26 09:50:33;;;;;;;0.70;0.40;;;15.30;61.60;;;;;;4998805;28;20400;-78
2021/05/26 09:53:27;;;;;;;2.95;0.60;;;15.30;61.70;;;;;;5001591;28;20026;-77
2021/05/26 09:55:54;;;;;;;3.97;1.42;;;15.20;61.80;;;;;;4997037;28;20441;-77
2021/05/26 09:58:21;;;;;;;5.28;0.77;;;15.10;62.00;;;;;;5004583;28;20021;-77
2021/05/26 10:00:50;;;;;;;0.75;0.22;;;15.10;62.40;;;;;;4991084;28;20026;-77
2021/05/26 10:03:18;;;;;;;1.77;0.70;;;15.10;61.30;;;;;;4998780;28;20030;-77
2021/05/26 10:05:45;;;;;;;1.63;0.95;;;15.20;60.90;;;;;;4993885;28;20113;-78
2021/05/26 10:08:15;;;;;;;1.27;0.30;;;15.20;61.20;;;;;;4994152;28;20033;-78
2021/05/26 10:10:48;;;;;;;2.22;0.88;;;15.20;61.10;;;;;;4995180;28;20068;-77
2021/05/26 10:13:17;;;;;;;1.80;0.30;;;15.20;61.80;;;;;;4994128;28;20096;-78
2021/05/26 10:15:45;;;;;;;1.08;0.30;;;15.10;61.90;;;;;;4989512;28;20390;-77
2021/05/26 10:18:12;;;;;;;1.58;0.17;;;15.00;62.40;;;;;;5001241;28;20022;-78
2021/05/26 10:20:44;;;;;;;0.30;0.10;;;15.00;63.20;;;;;;4994439;28;20030;-77
2021/05/26 10:23:20;;;;;;;1.15;0.30;;;14.80;64.10;;;;;;4999356;28;20152;-77
2021/05/26 10:25:48;;;;;;;2.28;0.22;;;14.80;63.60;;;;;;5003926;28;20052;-78
2021/05/26 10:28:32;;;;;;;1.65;0.20;;;14.70;64.00;;;;;;4998912;28;20101;-78
2021/05/26 10:31:06;;;;;;;1.15;0.25;;;14.50;64.00;;;;;;5000789;28;20068;-78
2021/05/26 10:33:45;;;;;;;1.40;0.20;;;14.50;63.80;;;;;;4992129;28;20039;-77
2021/05/26 10:36:14;;;;;;;1.52;0.65;;;14.60;63.80;;;;;;4998015;28;20036;-77
2021/05/26 10:39:04;;;;;;;2.05;0.35;;;14.60;64.10;;;;;;5001531;28;20210;-77
2021/05/26 10:42:05;;;;;;;1.13;0.20;;;14.50;64.40;;;;;;4999729;28;20056;-77
2021/05/26 10:44:57;;;;;;;4.00;0.77;;;14.50;64.30;;;;;;4992990;28;20077;-77
2021/05/26 10:47:37;;;;;;;1.40;0.65;;;14.60;64.20;;;;;;4996565;28;20053;-78
2021/05/26 10:50:16;;;;;;;2.47;0.28;;;14.60;64.50;;;;;;4994438;28;20132;-79
2021/05/26 10:52:59;;;;;;;3.95;0.52;;;14.50;65.10;;;;;;4999341;28;20061;-78
2021/05/26 10:56:05;;;;;;;1.02;0.30;;;14.50;65.40;;;;;;4996233;28;20484;-79
2021/05/26 10:58:45;;;;;;;0.85;0.30;;;14.40;65.00;;;;;;5005554;28;20084;-75
2021/05/26 11:01:13;;;;;;;1.85;0.85;;;14.50;65.00;;;;;;5006806;28;20029;-78
2021/05/26 11:03:45;;;;;;;1.63;0.50;;;14.40;65.60;;;;;;4997790;28;20053;-77
2021/05/26 11:06:18;;;;;;;2.75;1.02;;;14.40;66.20;;;;;;4998500;28;20480;-77
2021/05/26 11:08:55;;;;;;;3.78;1.00;;;14.40;66.00;;;;;;4995748;28;20030;-77
2021/05/26 11:11:26;;;;;;;4.80;1.27;;;14.30;66.50;;;;;;4993544;28;20038;-77
2021/05/26 11:14:18;;;;;;;3.15;1.15;;;14.20;66.80;;;;;;4999292;28;20084;-78
2021/05/26 11:16:57;;;;;;;1.98;0.75;;;14.20;66.80;;;;;;4996734;28;20074;-78
2021/05/26 11:19:27;;;;;;;3.42;1.13;;;14.20;67.10;;;;;;5000321;28;20092;-77
2021/05/26 11:22:06;;;;;;;1.42;0.77;;;14.20;67.20;;;;;;4995299;28;20041;-77
2021/05/26 11:24:39;;;;;;;6.97;0.88;;;14.10;67.30;;;;;;4997792;28;20026;-77
2021/05/26 11:27:17;;;;;;;1.45;0.40;;;14.10;67.80;;;;;;4997582;28;20089;-76
2021/05/26 11:29:48;;;;;;;1.23;0.17;;;14.10;67.70;;;;;;4994930;28;20031;-76
2021/05/26 11:32:23;;;;;;;0.82;0.20;;;14.00;68.30;;;;;;4990875;28;20504;-79
2021/05/26 11:34:54;;;;;;;2.03;0.45;;;14.00;68.30;;;;;;4996479;28;20053;-76
2021/05/26 11:37:41;;;;;;;2.60;0.88;;;14.00;68.10;;;;;;4997172;28;20405;-77
2021/05/26 11:40:23;;;;;;;;;;;14.00;68.30;;;;;;4999236;28;20381;-76
2021/05/26 11:42:52;;;;;;;2.30;0.43;;;13.90;68.50;;;;;;4996586;28;19910;-77
2021/05/26 11:45:19;;;;;;;2.42;0.80;;;13.90;69.30;;;;;;4996584;28;20083;-79
2021/05/26 11:47:49;;;;;;;2.38;0.40;;;13.80;69.60;;;;;;4997979;28;20031;-78
2021/05/26 11:50:16;;;;;;;2.95;1.00;;;13.80;69.80;;;;;;4995880;28;20472;-78
2021/05/26 11:53:00;;;;;;;2.90;1.23;;;13.70;69.50;;;;;;4998531;28;20465;-79
2021/05/26 11:55:29;;;;;;;3.75;1.25;;;13.70;69.70;;;;;;4992399;28;20062;-77
2021/05/26 11:57:56;;;;;;;1.83;0.40;;;13.70;70.10;;;;;;4991458;28;20034;-74
2021/05/26 12:00:26;;;;;;;2.33;0.45;;;13.70;70.50;;;;;;4993986;28;20026;-76
2021/05/26 12:03:01;;;;;;;1.00;0.20;;;13.70;70.40;;;;;;4996566;28;20037;-77
2021/05/26 12:05:53;;;;;;;1.83;0.30;;;13.60;70.50;;;;;;4991145;28;20073;-78
2021/05/26 12:08:23;;;;;;;2.15;0.40;;;13.60;70.70;;;;;;4995074;28;20030;-77
2021/05/26 12:10:57;;;;;;;1.05;0.20;;;13.60;71.10;;;;;;4991248;28;20026;-78
2021/05/26 12:13:32;;;;;;;4.32;0.50;;;13.50;71.60;;;;;;4990308;28;20116;-78
2021/05/26 12:16:04;;;;;;;3.20;0.32;;;13.50;71.60;;;;;;4986134;28;20059;-77
2021/05/26 12:18:32;;;;;;;3.17;0.20;;;13.40;72.10;;;;;;4987560;28;20117;-79
2021/05/26 12:21:00;;;;;;;1.45;0.35;;;13.40;72.60;;;;;;4993143;28;20026;-77
2021/05/26 12:23:41;;;;;;;2.45;0.50;;;13.40;72.90;;;;;;4991834;28;20018;-77
2021/05/26 12:26:22;;;;;;;3.58;0.52;;;13.30;72.50;;;;;;4994667;28;20025;-76
2021/05/26 12:28:50;;;;;;;3.25;0.60;;;13.30;72.90;;;;;;4995391;28;20432;-79
2021/05/26 12:31:19;;;;;;;2.38;0.52;;;13.30;73.30;;;;;;4996035;28;20030;-79
2021/05/26 12:33:53;;;;;;;2.97;0.50;;;13.30;73.70;;;;;;4998378;28;20037;-77
2021/05/26 12:36:24;;;;;;;0.82;0.30;;;13.20;73.90;;;;;;4991525;28;20504;-77
2021/05/26 12:39:03;;;;;;;4.07;0.60;;;13.20;74.20;;;;;;4993433;28;20110;-77
2021/05/26 12:41:33;;;;;;;0.77;0.45;;;13.20;74.30;;;;;;4996578;28;20022;-76
2021/05/26 12:44:09;;;;;;;1.13;0.40;;;13.10;75.00;;;;;;4996955;28;20027;-76
2021/05/26 12:46:38;;;;;;;0.88;0.40;;;13.10;75.20;;;;;;4999211;28;20038;-76
2021/05/26 12:49:24;;;;;;;1.77;0.40;;;13.10;75.00;;;;;;5001671;28;20025;-77
2021/05/26 12:51:51;;;;;;;;;;;13.10;75.20;;;;;;5001720;28;20049;-76
2021/05/26 12:54:18;;;;;;;0.70;0.45;;;13.00;76.00;;;;;;5004372;28;19917;-76
2021/05/26 12:56:46;;;;;;;3.92;0.40;;;13.00;75.50;;;;;;4999481;28;20113;-76
2021/05/26 12:59:13;;;;;;;7.90;1.27;;;13.00;75.80;;;;;;4996957;28;20030;-76
2021/05/26 13:02:04;;;;;;;1.40;0.65;;;13.00;75.90;;;;;;4999593;28;20025;-76